sensor_id;sensor_type;location;lat;lon;timestamp;temperature;humidity
33803;DHT22;20110;53.120;5.786;2023-03-21T00:01:57;7.00;99.90
33803;DHT22;20110;53.120;5.786;2023-03-21T00:04:25;7.00;99.90
33803;DHT22;20110;53.120;5.786;2023-03-21T00:06:52;7.00;99.90
33803;DHT22;20110;53.120;5.786;2023-03-21T00:09:19;7.00;99.90
33803;DHT22;20110;53.120;5.786;2023-03-21T00:11:45;7.00;99.90
33803;DHT22;20110;53.120;5.786;2023-03-21T00:14:11;7.00;99.90
33803;DHT22;20110;53.120;5.786;2023-03-21T00:16:39;7.00;99.90
33803;DHT22;20110;53.120;5.786;2023-03-21T00:19:05;6.90;99.90
33803;DHT22;20110;53.120;5.786;2023-03-21T00:21:34;6.80;99.90
33803;DHT22;20110;53.120;5.786;2023-03-21T00:24:04;7.00;99.90
33803;DHT22;20110;53.120;5.786;2023-03-21T00:26:32;7.00;99.90
33803;DHT22;20110;53.120;5.786;2023-03-21T00:28:58;7.00;99.90
33803;DHT22;20110;53.120;5.786;2023-03-21T00:31:24;7.10;99.90
33803;DHT22;20110;53.120;5.786;2023-03-21T00:33:50;7.00;99.90
33803;DHT22;20110;53.120;5.786;2023-03-21T00:36:16;7.00;99.90
33803;DHT22;20110;53.120;5.786;2023-03-21T00:38:42;6.60;99.90
33803;DHT22;20110;53.120;5.786;2023-03-21T00:41:10;6.90;99.90
33803;DHT22;20110;53.120;5.786;2023-03-21T00:43:38;7.00;99.90
33803;DHT22;20110;53.120;5.786;2023-03-21T00:46:04;7.10;99.90
33803;DHT22;20110;53.120;5.786;2023-03-21T00:48:30;7.10;99.90
33803;DHT22;20110;53.120;5.786;2023-03-21T00:50:57;7.10;99.90
33803;DHT22;20110;53.120;5.786;2023-03-21T00:53:27;7.00;99.90
33803;DHT22;20110;53.120;5.786;2023-03-21T00:55:54;7.00;99.90
33803;DHT22;20110;53.120;5.786;2023-03-21T00:58:20;7.00;99.90
33803;DHT22;20110;53.120;5.786;2023-03-21T01:00:46;6.90;99.90
33803;DHT22;20110;53.120;5.786;2023-03-21T01:03:13;6.90;99.90
33803;DHT22;20110;53.120;5.786;2023-03-21T01:05:43;7.10;99.90
33803;DHT22;20110;53.120;5.786;2023-03-21T01:08:31;7.10;99.90
33803;DHT22;20110;53.120;5.786;2023-03-21T01:11:13;7.10;99.90
33803;DHT22;20110;53.120;5.786;2023-03-21T01:13:40;7.00;99.90
33803;DHT22;20110;53.120;5.786;2023-03-21T01:16:08;7.00;99.90
33803;DHT22;20110;53.120;5.786;2023-03-21T01:18:36;6.90;99.90
33803;DHT22;20110;53.120;5.786;2023-03-21T01:21:07;7.00;99.90
33803;DHT22;20110;53.120;5.786;2023-03-21T01:23:35;7.00;99.90
33803;DHT22;20110;53.120;5.786;2023-03-21T01:26:02;7.10;99.90
33803;DHT22;20110;53.120;5.786;2023-03-21T01:28:28;7.10;99.90
33803;DHT22;20110;53.120;5.786;2023-03-21T01:30:55;7.10;99.90
33803;DHT22;20110;53.120;5.786;2023-03-21T01:33:21;7.10;99.90
33803;DHT22;20110;53.120;5.786;2023-03-21T01:35:48;7.10;99.90
33803;DHT22;20110;53.120;5.786;2023-03-21T01:38:14;7.00;99.90
33803;DHT22;20110;53.120;5.786;2023-03-21T01:40:40;7.00;99.90
33803;DHT22;20110;53.120;5.786;2023-03-21T01:43:33;7.00;99.90
33803;DHT22;20110;53.120;5.786;2023-03-21T01:46:19;7.10;99.90
33803;DHT22;20110;53.120;5.786;2023-03-21T01:48:53;7.10;99.90
33803;DHT22;20110;53.120;5.786;2023-03-21T01:51:25;7.10;99.90
33803;DHT22;20110;53.120;5.786;2023-03-21T01:53:53;7.10;99.90
33803;DHT22;20110;53.120;5.786;2023-03-21T01:56:34;7.10;99.90
33803;DHT22;20110;53.120;5.786;2023-03-21T02:02:04;7.00;99.90
33803;DHT22;20110;53.120;5.786;2023-03-21T02:04:37;7.10;99.90
33803;DHT22;20110;53.120;5.786;2023-03-21T02:07:12;7.10;99.90
33803;DHT22;20110;53.120;5.786;2023-03-21T02:09:46;7.10;99.90
33803;DHT22;20110;53.120;5.786;2023-03-21T02:12:13;7.10;99.90
33803;DHT22;20110;53.120;5.786;2023-03-21T02:14:41;7.10;99.90
33803;DHT22;20110;53.120;5.786;2023-03-21T02:20:37;7.00;99.90
33803;DHT22;20110;53.120;5.786;2023-03-21T02:29:04;7.10;99.90
33803;DHT22;20110;53.120;5.786;2023-03-21T02:35:10;7.20;99.90
33803;DHT22;20110;53.120;5.786;2023-03-21T02:37:58;7.10;99.90
33803;DHT22;20110;53.120;5.786;2023-03-21T02:40:51;7.00;99.90
33803;DHT22;20110;53.120;5.786;2023-03-21T02:43:30;7.00;99.90
33803;DHT22;20110;53.120;5.786;2023-03-21T02:46:12;7.00;99.90
33803;DHT22;20110;53.120;5.786;2023-03-21T02:48:53;7.10;99.90
33803;DHT22;20110;53.120;5.786;2023-03-21T02:51:26;7.10;99.90
33803;DHT22;20110;53.120;5.786;2023-03-21T02:54:04;7.10;99.90
33803;DHT22;20110;53.120;5.786;2023-03-21T02:56:35;7.10;99.90
33803;DHT22;20110;53.120;5.786;2023-03-21T02:59:03;7.10;99.90
33803;DHT22;20110;53.120;5.786;2023-03-21T03:01:30;7.00;99.90
33803;DHT22;20110;53.120;5.786;2023-03-21T03:03:57;7.00;99.90
33803;DHT22;20110;53.120;5.786;2023-03-21T03:06:28;7.00;99.90
33803;DHT22;20110;53.120;5.786;2023-03-21T03:09:17;7.10;99.90
33803;DHT22;20110;53.120;5.786;2023-03-21T03:12:03;7.10;99.90
33803;DHT22;20110;53.120;5.786;2023-03-21T03:28:53;7.10;99.90
33803;DHT22;20110;53.120;5.786;2023-03-21T03:31:28;7.10;99.90
33803;DHT22;20110;53.120;5.786;2023-03-21T03:34:02;7.20;99.90
33803;DHT22;20110;53.120;5.786;2023-03-21T03:36:36;7.20;99.90
33803;DHT22;20110;53.120;5.786;2023-03-21T03:39:10;7.10;99.90
33803;DHT22;20110;53.120;5.786;2023-03-21T03:41:49;7.10;99.90
33803;DHT22;20110;53.120;5.786;2023-03-21T03:44:19;7.10;99.90
33803;DHT22;20110;53.120;5.786;2023-03-21T03:47:10;7.00;99.90
33803;DHT22;20110;53.120;5.786;2023-03-21T03:50:43;7.10;99.90
33803;DHT22;20110;53.120;5.786;2023-03-21T03:53:05;7.10;99.90
33803;DHT22;20110;53.120;5.786;2023-03-21T03:55:38;7.10;99.90
33803;DHT22;20110;53.120;5.786;2023-03-21T03:58:04;7.10;99.90
33803;DHT22;20110;53.120;5.786;2023-03-21T04:00:32;7.10;99.90
33803;DHT22;20110;53.120;5.786;2023-03-21T04:02:58;7.10;99.90
33803;DHT22;20110;53.120;5.786;2023-03-21T04:05:25;7.10;99.90
33803;DHT22;20110;53.120;5.786;2023-03-21T04:07:52;7.10;99.90
33803;DHT22;20110;53.120;5.786;2023-03-21T04:10:19;7.00;99.90
33803;DHT22;20110;53.120;5.786;2023-03-21T04:12:47;7.10;99.90
33803;DHT22;20110;53.120;5.786;2023-03-21T04:15:13;7.10;99.90
33803;DHT22;20110;53.120;5.786;2023-03-21T04:17:39;7.10;99.90
33803;DHT22;20110;53.120;5.786;2023-03-21T04:20:05;7.00;99.90
33803;DHT22;20110;53.120;5.786;2023-03-21T04:22:34;7.10;99.90
33803;DHT22;20110;53.120;5.786;2023-03-21T04:25:00;7.10;99.90
33803;DHT22;20110;53.120;5.786;2023-03-21T04:27:26;7.10;99.90
33803;DHT22;20110;53.120;5.786;2023-03-21T04:29:52;7.10;99.90
33803;DHT22;20110;53.120;5.786;2023-03-21T04:32:18;7.10;99.90
33803;DHT22;20110;53.120;5.786;2023-03-21T04:34:49;7.10;99.90
33803;DHT22;20110;53.120;5.786;2023-03-21T04:37:19;7.10;99.90
33803;DHT22;20110;53.120;5.786;2023-03-21T04:39:49;7.10;99.90
33803;DHT22;20110;53.120;5.786;2023-03-21T04:42:17;7.00;99.90
33803;DHT22;20110;53.120;5.786;2023-03-21T04:44:47;6.90;99.90
33803;DHT22;20110;53.120;5.786;2023-03-21T04:47:14;7.10;99.90
33803;DHT22;20110;53.120;5.786;2023-03-21T04:49:43;7.20;99.90
33803;DHT22;20110;53.120;5.786;2023-03-21T04:52:10;7.20;99.90
33803;DHT22;20110;53.120;5.786;2023-03-21T04:54:35;7.20;99.90
33803;DHT22;20110;53.120;5.786;2023-03-21T04:57:02;7.20;99.90
33803;DHT22;20110;53.120;5.786;2023-03-21T04:59:29;7.20;99.90
33803;DHT22;20110;53.120;5.786;2023-03-21T05:01:55;7.20;99.90
33803;DHT22;20110;53.120;5.786;2023-03-21T05:04:23;7.10;99.90
33803;DHT22;20110;53.120;5.786;2023-03-21T05:06:50;7.10;99.90
33803;DHT22;20110;53.120;5.786;2023-03-21T05:09:17;7.10;99.90
33803;DHT22;20110;53.120;5.786;2023-03-21T05:11:43;7.20;99.90
33803;DHT22;20110;53.120;5.786;2023-03-21T05:14:13;7.10;99.90
33803;DHT22;20110;53.120;5.786;2023-03-21T05:16:42;7.20;99.90
33803;DHT22;20110;53.120;5.786;2023-03-21T05:19:13;7.20;99.90
33803;DHT22;20110;53.120;5.786;2023-03-21T05:21:40;7.20;99.90
33803;DHT22;20110;53.120;5.786;2023-03-21T05:24:08;7.10;99.90
33803;DHT22;20110;53.120;5.786;2023-03-21T05:26:39;7.20;99.90
33803;DHT22;20110;53.120;5.786;2023-03-21T05:29:07;7.20;99.90
33803;DHT22;20110;53.120;5.786;2023-03-21T05:31:33;7.20;99.90
33803;DHT22;20110;53.120;5.786;2023-03-21T05:34:00;7.20;99.90
33803;DHT22;20110;53.120;5.786;2023-03-21T05:36:26;7.20;99.90
33803;DHT22;20110;53.120;5.786;2023-03-21T05:38:52;7.20;99.90
33803;DHT22;20110;53.120;5.786;2023-03-21T05:41:18;7.20;99.90
33803;DHT22;20110;53.120;5.786;2023-03-21T05:43:45;7.20;99.90
33803;DHT22;20110;53.120;5.786;2023-03-21T05:46:12;7.20;99.90
33803;DHT22;20110;53.120;5.786;2023-03-21T05:48:38;7.20;99.90
33803;DHT22;20110;53.120;5.786;2023-03-21T05:51:04;7.20;99.90
33803;DHT22;20110;53.120;5.786;2023-03-21T05:53:30;7.20;99.90
33803;DHT22;20110;53.120;5.786;2023-03-21T05:55:56;7.30;99.90
33803;DHT22;20110;53.120;5.786;2023-03-21T05:58:22;7.30;99.90
33803;DHT22;20110;53.120;5.786;2023-03-21T06:00:48;7.30;99.90
33803;DHT22;20110;53.120;5.786;2023-03-21T06:03:14;7.20;99.90
33803;DHT22;20110;53.120;5.786;2023-03-21T06:05:41;7.20;99.90
33803;DHT22;20110;53.120;5.786;2023-03-21T06:08:07;7.20;99.90
33803;DHT22;20110;53.120;5.786;2023-03-21T06:10:32;7.20;99.90
33803;DHT22;20110;53.120;5.786;2023-03-21T06:12:58;7.30;99.90
33803;DHT22;20110;53.120;5.786;2023-03-21T06:15:24;7.30;99.90
33803;DHT22;20110;53.120;5.786;2023-03-21T06:17:51;7.30;99.90
33803;DHT22;20110;53.120;5.786;2023-03-21T06:20:17;7.40;99.90
33803;DHT22;20110;53.120;5.786;2023-03-21T06:22:43;7.30;99.90
33803;DHT22;20110;53.120;5.786;2023-03-21T06:25:09;7.30;99.90
33803;DHT22;20110;53.120;5.786;2023-03-21T06:27:36;7.30;99.90
33803;DHT22;20110;53.120;5.786;2023-03-21T06:30:03;7.30;99.90
33803;DHT22;20110;53.120;5.786;2023-03-21T06:32:30;7.20;99.90
33803;DHT22;20110;53.120;5.786;2023-03-21T06:34:56;7.30;99.90
33803;DHT22;20110;53.120;5.786;2023-03-21T06:37:22;7.40;99.90
33803;DHT22;20110;53.120;5.786;2023-03-21T06:39:52;7.40;99.90
33803;DHT22;20110;53.120;5.786;2023-03-21T06:42:18;7.40;99.90
33803;DHT22;20110;53.120;5.786;2023-03-21T06:44:43;7.40;99.90
33803;DHT22;20110;53.120;5.786;2023-03-21T06:47:09;7.30;99.90
33803;DHT22;20110;53.120;5.786;2023-03-21T06:49:35;7.30;99.90
33803;DHT22;20110;53.120;5.786;2023-03-21T06:52:01;7.40;99.90
33803;DHT22;20110;53.120;5.786;2023-03-21T06:54:28;7.40;99.90
33803;DHT22;20110;53.120;5.786;2023-03-21T06:56:54;7.40;99.90
33803;DHT22;20110;53.120;5.786;2023-03-21T06:59:21;7.40;99.90
33803;DHT22;20110;53.120;5.786;2023-03-21T07:01:46;7.50;99.90
33803;DHT22;20110;53.120;5.786;2023-03-21T07:04:13;7.30;99.90
33803;DHT22;20110;53.120;5.786;2023-03-21T07:06:38;7.30;99.90
33803;DHT22;20110;53.120;5.786;2023-03-21T07:09:05;7.20;99.90
33803;DHT22;20110;53.120;5.786;2023-03-21T07:11:31;7.20;99.90
33803;DHT22;20110;53.120;5.786;2023-03-21T07:13:57;7.30;99.90
33803;DHT22;20110;53.120;5.786;2023-03-21T07:16:24;7.40;99.90
33803;DHT22;20110;53.120;5.786;2023-03-21T07:18:52;7.40;99.90
33803;DHT22;20110;53.120;5.786;2023-03-21T07:21:18;7.40;99.90
33803;DHT22;20110;53.120;5.786;2023-03-21T07:23:44;7.40;99.90
33803;DHT22;20110;53.120;5.786;2023-03-21T07:26:11;7.40;99.90
33803;DHT22;20110;53.120;5.786;2023-03-21T07:28:37;7.30;99.90
33803;DHT22;20110;53.120;5.786;2023-03-21T07:31:05;7.30;99.90
33803;DHT22;20110;53.120;5.786;2023-03-21T07:33:33;7.30;99.90
33803;DHT22;20110;53.120;5.786;2023-03-21T07:35:59;7.40;99.90
33803;DHT22;20110;53.120;5.786;2023-03-21T07:38:26;7.30;99.90
33803;DHT22;20110;53.120;5.786;2023-03-21T07:40:55;7.40;99.90
33803;DHT22;20110;53.120;5.786;2023-03-21T07:43:25;7.40;99.90
33803;DHT22;20110;53.120;5.786;2023-03-21T07:45:55;7.40;99.90
33803;DHT22;20110;53.120;5.786;2023-03-21T07:48:24;7.40;99.90
33803;DHT22;20110;53.120;5.786;2023-03-21T07:50:51;7.30;99.90
33803;DHT22;20110;53.120;5.786;2023-03-21T07:53:17;7.30;99.90
33803;DHT22;20110;53.120;5.786;2023-03-21T07:55:43;7.30;99.90
33803;DHT22;20110;53.120;5.786;2023-03-21T07:58:09;7.50;99.90
33803;DHT22;20110;53.120;5.786;2023-03-21T08:00:34;7.40;99.90
33803;DHT22;20110;53.120;5.786;2023-03-21T08:03:00;7.40;99.90
33803;DHT22;20110;53.120;5.786;2023-03-21T08:05:30;7.40;99.90
33803;DHT22;20110;53.120;5.786;2023-03-21T08:08:00;7.40;99.90
33803;DHT22;20110;53.120;5.786;2023-03-21T08:10:26;7.40;99.90
33803;DHT22;20110;53.120;5.786;2023-03-21T08:12:52;7.40;99.90
33803;DHT22;20110;53.120;5.786;2023-03-21T08:15:18;7.40;99.90
33803;DHT22;20110;53.120;5.786;2023-03-21T08:17:44;7.40;99.90
33803;DHT22;20110;53.120;5.786;2023-03-21T08:20:13;7.50;99.90
33803;DHT22;20110;53.120;5.786;2023-03-21T08:22:42;7.40;99.90
33803;DHT22;20110;53.120;5.786;2023-03-21T08:25:14;7.40;99.90
33803;DHT22;20110;53.120;5.786;2023-03-21T08:27:43;7.40;99.90
33803;DHT22;20110;53.120;5.786;2023-03-21T08:30:11;7.40;99.90
33803;DHT22;20110;53.120;5.786;2023-03-21T08:32:40;7.40;99.90
33803;DHT22;20110;53.120;5.786;2023-03-21T08:35:08;7.30;99.90
33803;DHT22;20110;53.120;5.786;2023-03-21T08:37:37;7.40;99.90
33803;DHT22;20110;53.120;5.786;2023-03-21T08:40:06;7.40;99.90
33803;DHT22;20110;53.120;5.786;2023-03-21T08:42:38;7.40;99.90
33803;DHT22;20110;53.120;5.786;2023-03-21T08:45:05;7.40;99.90
33803;DHT22;20110;53.120;5.786;2023-03-21T08:47:32;7.40;99.90
33803;DHT22;20110;53.120;5.786;2023-03-21T08:49:58;7.50;99.90
33803;DHT22;20110;53.120;5.786;2023-03-21T08:52:25;7.30;99.90
33803;DHT22;20110;53.120;5.786;2023-03-21T08:54:52;7.30;99.90
33803;DHT22;20110;53.120;5.786;2023-03-21T08:57:19;7.40;99.90
33803;DHT22;20110;53.120;5.786;2023-03-21T08:59:44;7.50;99.90
33803;DHT22;20110;53.120;5.786;2023-03-21T09:02:14;7.50;99.90
33803;DHT22;20110;53.120;5.786;2023-03-21T09:04:42;7.60;99.90
33803;DHT22;20110;53.120;5.786;2023-03-21T09:07:10;7.60;99.90
33803;DHT22;20110;53.120;5.786;2023-03-21T09:09:40;7.60;99.90
33803;DHT22;20110;53.120;5.786;2023-03-21T09:12:06;7.60;99.90
33803;DHT22;20110;53.120;5.786;2023-03-21T09:14:32;7.60;99.90
33803;DHT22;20110;53.120;5.786;2023-03-21T09:16:59;7.50;99.90
33803;DHT22;20110;53.120;5.786;2023-03-21T09:19:25;7.60;99.90
33803;DHT22;20110;53.120;5.786;2023-03-21T09:21:52;7.60;99.90
33803;DHT22;20110;53.120;5.786;2023-03-21T09:24:20;7.70;99.90
33803;DHT22;20110;53.120;5.786;2023-03-21T09:26:46;7.60;99.90
33803;DHT22;20110;53.120;5.786;2023-03-21T09:29:16;7.60;99.90
33803;DHT22;20110;53.120;5.786;2023-03-21T09:31:44;7.50;99.90
33803;DHT22;20110;53.120;5.786;2023-03-21T09:34:12;7.50;99.90
33803;DHT22;20110;53.120;5.786;2023-03-21T09:36:40;7.50;99.90
33803;DHT22;20110;53.120;5.786;2023-03-21T09:39:09;7.60;99.90
33803;DHT22;20110;53.120;5.786;2023-03-21T09:42:03;7.50;99.90
33803;DHT22;20110;53.120;5.786;2023-03-21T09:47:49;7.60;99.90
33803;DHT22;20110;53.120;5.786;2023-03-21T09:50:20;7.70;99.90
33803;DHT22;20110;53.120;5.786;2023-03-21T09:52:58;7.60;99.90
33803;DHT22;20110;53.120;5.786;2023-03-21T09:55:32;7.70;99.90
33803;DHT22;20110;53.120;5.786;2023-03-21T09:58:26;7.70;99.90
33803;DHT22;20110;53.120;5.786;2023-03-21T10:01:20;7.90;99.90
33803;DHT22;20110;53.120;5.786;2023-03-21T10:04:05;7.90;99.90
33803;DHT22;20110;53.120;5.786;2023-03-21T10:06:37;8.10;99.90
33803;DHT22;20110;53.120;5.786;2023-03-21T10:09:12;8.10;99.90
33803;DHT22;20110;53.120;5.786;2023-03-21T10:11:47;8.20;99.90
33803;DHT22;20110;53.120;5.786;2023-03-21T10:14:29;8.20;99.90
33803;DHT22;20110;53.120;5.786;2023-03-21T10:17:26;8.20;99.90
33803;DHT22;20110;53.120;5.786;2023-03-21T10:22:45;8.40;99.90
33803;DHT22;20110;53.120;5.786;2023-03-21T10:25:16;8.70;99.90
33803;DHT22;20110;53.120;5.786;2023-03-21T10:27:44;8.80;99.90
33803;DHT22;20110;53.120;5.786;2023-03-21T10:33:07;8.80;99.90
33803;DHT22;20110;53.120;5.786;2023-03-21T10:35:38;8.80;99.90
33803;DHT22;20110;53.120;5.786;2023-03-21T10:38:12;9.00;99.90
33803;DHT22;20110;53.120;5.786;2023-03-21T10:40:41;9.20;99.90
33803;DHT22;20110;53.120;5.786;2023-03-21T10:45:53;8.90;99.90
33803;DHT22;20110;53.120;5.786;2023-03-21T10:48:21;9.10;99.90
33803;DHT22;20110;53.120;5.786;2023-03-21T10:50:50;9.30;99.90
33803;DHT22;20110;53.120;5.786;2023-03-21T10:53:28;9.00;99.90
33803;DHT22;20110;53.120;5.786;2023-03-21T10:56:00;9.00;99.90
33803;DHT22;20110;53.120;5.786;2023-03-21T10:58:35;9.10;99.90
33803;DHT22;20110;53.120;5.786;2023-03-21T11:01:09;9.30;99.90
33803;DHT22;20110;53.120;5.786;2023-03-21T11:03:42;9.40;99.90
33803;DHT22;20110;53.120;5.786;2023-03-21T11:06:38;9.50;99.90
33803;DHT22;20110;53.120;5.786;2023-03-21T11:09:12;9.40;99.90
33803;DHT22;20110;53.120;5.786;2023-03-21T11:14:39;9.40;99.90
33803;DHT22;20110;53.120;5.786;2023-03-21T11:20:15;9.40;99.90
33803;DHT22;20110;53.120;5.786;2023-03-21T11:22:46;9.60;99.90
33803;DHT22;20110;53.120;5.786;2023-03-21T11:25:31;9.50;99.90
33803;DHT22;20110;53.120;5.786;2023-03-21T11:28:05;9.50;99.90
33803;DHT22;20110;53.120;5.786;2023-03-21T11:30:36;9.50;99.90
33803;DHT22;20110;53.120;5.786;2023-03-21T11:33:17;9.40;99.90
33803;DHT22;20110;53.120;5.786;2023-03-21T11:36:39;9.40;99.90
33803;DHT22;20110;53.120;5.786;2023-03-21T11:39:12;9.30;99.90
33803;DHT22;20110;53.120;5.786;2023-03-21T11:41:50;9.40;99.90
33803;DHT22;20110;53.120;5.786;2023-03-21T11:44:29;9.40;99.90
33803;DHT22;20110;53.120;5.786;2023-03-21T11:46:58;9.50;99.90
33803;DHT22;20110;53.120;5.786;2023-03-21T11:49:26;9.40;99.90
33803;DHT22;20110;53.120;5.786;2023-03-21T11:52:02;9.50;99.90
33803;DHT22;20110;53.120;5.786;2023-03-21T12:11:51;9.60;99.90
33803;DHT22;20110;53.120;5.786;2023-03-21T12:24:07;9.60;99.90
33803;DHT22;20110;53.120;5.786;2023-03-21T12:30:19;9.70;99.90
33803;DHT22;20110;53.120;5.786;2023-03-21T12:33:35;9.70;99.90
33803;DHT22;20110;53.120;5.786;2023-03-21T12:36:29;9.80;99.90
33803;DHT22;20110;53.120;5.786;2023-03-21T12:45:04;9.60;99.90
33803;DHT22;20110;53.120;5.786;2023-03-21T12:47:40;9.60;99.90
33803;DHT22;20110;53.120;5.786;2023-03-21T12:50:23;9.60;99.90
33803;DHT22;20110;53.120;5.786;2023-03-21T12:52:58;9.70;99.90
33803;DHT22;20110;53.120;5.786;2023-03-21T12:55:33;9.90;99.90
33803;DHT22;20110;53.120;5.786;2023-03-21T12:58:03;10.30;99.90
33803;DHT22;20110;53.120;5.786;2023-03-21T13:03:23;10.10;99.90
33803;DHT22;20110;53.120;5.786;2023-03-21T13:06:01;10.30;99.90
33803;DHT22;20110;53.120;5.786;2023-03-21T13:08:33;10.00;99.90
33803;DHT22;20110;53.120;5.786;2023-03-21T13:11:22;10.00;99.90
33803;DHT22;20110;53.120;5.786;2023-03-21T13:16:55;9.80;99.90
33803;DHT22;20110;53.120;5.786;2023-03-21T13:19:41;10.10;99.90
33803;DHT22;20110;53.120;5.786;2023-03-21T13:22:39;10.00;99.90
33803;DHT22;20110;53.120;5.786;2023-03-21T13:25:18;10.30;99.90
33803;DHT22;20110;53.120;5.786;2023-03-21T13:28:03;10.50;99.90
33803;DHT22;20110;53.120;5.786;2023-03-21T13:30:30;10.30;99.90
33803;DHT22;20110;53.120;5.786;2023-03-21T13:35:37;10.30;99.90
33803;DHT22;20110;53.120;5.786;2023-03-21T13:38:20;10.10;99.90
33803;DHT22;20110;53.120;5.786;2023-03-21T13:43:53;10.20;99.90
33803;DHT22;20110;53.120;5.786;2023-03-21T13:59:18;10.40;99.90
33803;DHT22;20110;53.120;5.786;2023-03-21T14:04:56;10.60;99.90
33803;DHT22;20110;53.120;5.786;2023-03-21T14:07:39;10.50;99.90
33803;DHT22;20110;53.120;5.786;2023-03-21T14:13:03;10.60;99.90
33803;DHT22;20110;53.120;5.786;2023-03-21T14:15:53;10.60;99.90
33803;DHT22;20110;53.120;5.786;2023-03-21T14:18:21;10.60;99.90
33803;DHT22;20110;53.120;5.786;2023-03-21T14:20:53;10.40;99.90
33803;DHT22;20110;53.120;5.786;2023-03-21T14:23:21;10.40;99.90
33803;DHT22;20110;53.120;5.786;2023-03-21T14:25:47;10.40;99.90
33803;DHT22;20110;53.120;5.786;2023-03-21T14:28:17;10.30;99.90
33803;DHT22;20110;53.120;5.786;2023-03-21T14:30:53;10.40;99.90
33803;DHT22;20110;53.120;5.786;2023-03-21T14:33:31;10.30;99.90
33803;DHT22;20110;53.120;5.786;2023-03-21T14:36:23;10.10;99.90
33803;DHT22;20110;53.120;5.786;2023-03-21T14:41:30;9.90;99.90
33803;DHT22;20110;53.120;5.786;2023-03-21T14:44:21;10.00;99.90
33803;DHT22;20110;53.120;5.786;2023-03-21T14:47:01;9.90;99.90
33803;DHT22;20110;53.120;5.786;2023-03-21T14:49:34;9.90;99.90
33803;DHT22;20110;53.120;5.786;2023-03-21T14:52:10;9.80;99.90
33803;DHT22;20110;53.120;5.786;2023-03-21T14:54:44;9.80;99.90
33803;DHT22;20110;53.120;5.786;2023-03-21T14:57:20;9.70;99.90
33803;DHT22;20110;53.120;5.786;2023-03-21T14:59:52;9.50;99.90
33803;DHT22;20110;53.120;5.786;2023-03-21T15:02:40;9.30;99.90
33803;DHT22;20110;53.120;5.786;2023-03-21T15:05:26;9.20;99.90
33803;DHT22;20110;53.120;5.786;2023-03-21T15:08:00;9.20;99.90
33803;DHT22;20110;53.120;5.786;2023-03-21T15:10:28;9.30;99.90
33803;DHT22;20110;53.120;5.786;2023-03-21T15:12:58;9.40;99.90
33803;DHT22;20110;53.120;5.786;2023-03-21T15:15:28;9.40;99.90
33803;DHT22;20110;53.120;5.786;2023-03-21T15:18:02;9.30;99.90
33803;DHT22;20110;53.120;5.786;2023-03-21T15:20:31;9.30;99.90
33803;DHT22;20110;53.120;5.786;2023-03-21T15:23:07;9.20;99.90
33803;DHT22;20110;53.120;5.786;2023-03-21T15:25:51;9.10;99.90
33803;DHT22;20110;53.120;5.786;2023-03-21T15:28:18;9.20;99.90
33803;DHT22;20110;53.120;5.786;2023-03-21T15:30:49;9.30;99.90
33803;DHT22;20110;53.120;5.786;2023-03-21T15:33:17;9.30;99.90
33803;DHT22;20110;53.120;5.786;2023-03-21T15:35:49;9.30;99.90
33803;DHT22;20110;53.120;5.786;2023-03-21T15:38:37;9.00;99.90
33803;DHT22;20110;53.120;5.786;2023-03-21T15:41:26;8.90;99.90
33803;DHT22;20110;53.120;5.786;2023-03-21T15:44:10;8.70;99.90
33803;DHT22;20110;53.120;5.786;2023-03-21T15:46:45;8.60;99.90
33803;DHT22;20110;53.120;5.786;2023-03-21T15:51:46;8.50;99.90
33803;DHT22;20110;53.120;5.786;2023-03-21T15:54:32;8.60;99.90
33803;DHT22;20110;53.120;5.786;2023-03-21T15:57:04;8.30;99.90
33803;DHT22;20110;53.120;5.786;2023-03-21T15:59:47;8.40;99.90
33803;DHT22;20110;53.120;5.786;2023-03-21T16:02:19;8.30;99.90
33803;DHT22;20110;53.120;5.786;2023-03-21T16:05:02;8.30;99.90
33803;DHT22;20110;53.120;5.786;2023-03-21T16:07:48;8.20;99.90
33803;DHT22;20110;53.120;5.786;2023-03-21T16:10:35;8.30;99.90
33803;DHT22;20110;53.120;5.786;2023-03-21T16:13:03;8.30;99.90
33803;DHT22;20110;53.120;5.786;2023-03-21T16:15:30;8.30;99.90
33803;DHT22;20110;53.120;5.786;2023-03-21T16:17:59;8.30;99.90
33803;DHT22;20110;53.120;5.786;2023-03-21T16:20:31;8.30;99.90
33803;DHT22;20110;53.120;5.786;2023-03-21T16:22:58;8.30;99.90
33803;DHT22;20110;53.120;5.786;2023-03-21T16:25:25;8.30;99.90
33803;DHT22;20110;53.120;5.786;2023-03-21T16:27:53;8.20;99.90
33803;DHT22;20110;53.120;5.786;2023-03-21T16:30:20;8.40;99.90
33803;DHT22;20110;53.120;5.786;2023-03-21T16:32:47;8.30;99.90
33803;DHT22;20110;53.120;5.786;2023-03-21T16:35:14;8.30;99.90
33803;DHT22;20110;53.120;5.786;2023-03-21T16:37:41;8.30;99.90
33803;DHT22;20110;53.120;5.786;2023-03-21T16:40:38;8.30;99.90
33803;DHT22;20110;53.120;5.786;2023-03-21T16:43:04;8.30;99.90
33803;DHT22;20110;53.120;5.786;2023-03-21T16:45:30;8.30;99.90
33803;DHT22;20110;53.120;5.786;2023-03-21T16:47:56;8.40;99.90
33803;DHT22;20110;53.120;5.786;2023-03-21T16:53:00;8.30;99.90
33803;DHT22;20110;53.120;5.786;2023-03-21T16:55:27;8.30;99.90
33803;DHT22;20110;53.120;5.786;2023-03-21T16:57:55;8.40;99.90
33803;DHT22;20110;53.120;5.786;2023-03-21T17:00:25;8.40;99.90
33803;DHT22;20110;53.120;5.786;2023-03-21T17:02:54;8.30;99.90
33803;DHT22;20110;53.120;5.786;2023-03-21T17:05:22;8.30;99.90
33803;DHT22;20110;53.120;5.786;2023-03-21T17:07:51;8.30;99.90
33803;DHT22;20110;53.120;5.786;2023-03-21T17:10:25;8.40;99.90
33803;DHT22;20110;53.120;5.786;2023-03-21T17:12:52;8.30;99.90
33803;DHT22;20110;53.120;5.786;2023-03-21T17:15:19;8.30;99.90
33803;DHT22;20110;53.120;5.786;2023-03-21T17:17:46;8.40;99.90
33803;DHT22;20110;53.120;5.786;2023-03-21T17:20:20;8.40;99.90
33803;DHT22;20110;53.120;5.786;2023-03-21T17:22:49;8.40;99.90
33803;DHT22;20110;53.120;5.786;2023-03-21T17:25:16;8.40;99.90
33803;DHT22;20110;53.120;5.786;2023-03-21T17:27:43;8.50;99.90
33803;DHT22;20110;53.120;5.786;2023-03-21T17:30:31;8.50;99.90
33803;DHT22;20110;53.120;5.786;2023-03-21T17:32:59;8.60;99.90
33803;DHT22;20110;53.120;5.786;2023-03-21T17:35:26;8.60;99.90
33803;DHT22;20110;53.120;5.786;2023-03-21T17:37:53;8.60;99.90
33803;DHT22;20110;53.120;5.786;2023-03-21T17:40:30;8.70;99.90
33803;DHT22;20110;53.120;5.786;2023-03-21T17:42:57;8.60;99.90
33803;DHT22;20110;53.120;5.786;2023-03-21T17:45:25;8.60;99.90
33803;DHT22;20110;53.120;5.786;2023-03-21T17:47:51;8.60;99.90
33803;DHT22;20110;53.120;5.786;2023-03-21T17:50:24;8.60;99.90
33803;DHT22;20110;53.120;5.786;2023-03-21T17:52:52;8.50;99.90
33803;DHT22;20110;53.120;5.786;2023-03-21T17:55:20;8.30;99.90
33803;DHT22;20110;53.120;5.786;2023-03-21T17:57:47;8.30;99.90
33803;DHT22;20110;53.120;5.786;2023-03-21T18:00:17;8.30;99.90
33803;DHT22;20110;53.120;5.786;2023-03-21T18:02:47;8.30;99.90
33803;DHT22;20110;53.120;5.786;2023-03-21T18:05:14;8.30;99.90
33803;DHT22;20110;53.120;5.786;2023-03-21T18:07:41;8.20;99.90
33803;DHT22;20110;53.120;5.786;2023-03-21T18:10:14;8.20;99.90
33803;DHT22;20110;53.120;5.786;2023-03-21T18:12:42;8.00;99.90
33803;DHT22;20110;53.120;5.786;2023-03-21T18:15:08;8.00;99.90